createdAt,value
2023-01-30T00:01:59.472Z,63.37
2023-01-30T00:04:27.547Z,63.30
2023-01-30T00:06:55.562Z,63.92
2023-01-30T00:09:23.633Z,63.82
2023-01-30T00:11:51.721Z,63.65
2023-01-30T00:14:21.142Z,64.40
2023-01-30T00:16:49.193Z,63.85
2023-01-30T00:19:17.239Z,63.42
2023-01-30T00:21:45.316Z,63.62
2023-01-30T00:24:13.618Z,63.34
2023-01-30T00:26:41.818Z,63.76
2023-01-30T00:29:10.811Z,63.78
2023-01-30T00:31:40.757Z,63.34
2023-01-30T00:34:08.837Z,63.61
2023-01-30T00:36:36.861Z,63.76
2023-01-30T00:39:05.181Z,63.40
2023-01-30T00:41:48.011Z,64.01
2023-01-30T00:44:33.171Z,63.73
2023-01-30T00:47:09.137Z,64.05
2023-01-30T00:49:38.016Z,64.19
2023-01-30T00:52:07.086Z,63.62
2023-01-30T00:54:35.628Z,63.90
2023-01-30T00:57:03.652Z,63.56
2023-01-30T00:59:32.546Z,63.67
2023-01-30T01:02:02.256Z,63.51
2023-01-30T01:04:30.383Z,63.44
2023-01-30T01:06:58.465Z,63.63
2023-01-30T01:09:26.581Z,63.63
2023-01-30T01:11:54.637Z,63.40
2023-01-30T01:14:22.676Z,63.84
2023-01-30T01:16:50.814Z,64.28
2023-01-30T01:19:20.287Z,64.77
2023-01-30T01:21:48.399Z,66.11
2023-01-30T01:24:17.418Z,65.71
2023-01-30T01:26:46.055Z,65.66
2023-01-30T01:29:15.151Z,65.81
2023-01-30T01:31:43.853Z,66.15
2023-01-30T01:34:12.270Z,66.30
2023-01-30T01:36:53.081Z,66.78
2023-01-30T01:39:22.424Z,66.98
2023-01-30T01:41:50.752Z,67.06
2023-01-30T01:44:18.847Z,67.79
2023-01-30T01:46:51.230Z,67.65
2023-01-30T01:49:23.959Z,67.59
2023-01-30T01:51:57.993Z,67.56
2023-01-30T01:54:33.368Z,67.49
2023-01-30T01:57:04.594Z,68.14
2023-01-30T01:59:36.082Z,67.66
2023-01-30T02:02:08.946Z,67.26
2023-01-30T02:04:57.375Z,67.33
2023-01-30T02:07:27.294Z,66.89
2023-01-30T02:09:55.464Z,66.43
2023-01-30T02:12:23.495Z,66.04
2023-01-30T02:14:53.985Z,66.53
2023-01-30T02:17:22.307Z,65.77
2023-01-30T02:19:54.507Z,65.91
2023-01-30T02:22:49.275Z,66.07
2023-01-30T02:25:54.133Z,64.81
2023-01-30T02:28:49.140Z,64.74
2023-01-30T02:31:36.729Z,64.53
2023-01-30T02:34:22.653Z,64.32
2023-01-30T02:37:01.273Z,64.01
2023-01-30T02:39:39.627Z,64.82
2023-01-30T02:42:15.444Z,64.62
2023-01-30T02:44:51.491Z,64.69
2023-01-30T02:47:30.090Z,65.19
2023-01-30T02:50:03.482Z,65.87
2023-01-30T02:52:33.596Z,65.91
2023-01-30T02:55:02.650Z,66.03
2023-01-30T02:57:30.914Z,65.88
2023-01-30T03:00:06.152Z,66.20
2023-01-30T03:03:08.286Z,65.82
2023-01-30T03:05:57.199Z,65.51
2023-01-30T03:08:32.968Z,65.59
2023-01-30T03:11:05.313Z,66.24
2023-01-30T03:13:45.767Z,66.88
2023-01-30T03:16:18.468Z,66.96
2023-01-30T03:18:50.492Z,66.77
2023-01-30T03:21:19.080Z,66.59
2023-01-30T03:23:47.746Z,66.53
2023-01-30T03:26:19.340Z,66.43
2023-01-30T03:28:50.062Z,66.45
2023-01-30T03:31:18.684Z,66.07
2023-01-30T03:33:48.576Z,66.08
2023-01-30T03:36:16.903Z,65.89
2023-01-30T03:38:46.451Z,65.86
2023-01-30T03:41:14.618Z,65.78
2023-01-30T03:43:42.760Z,65.56
2023-01-30T03:46:11.131Z,65.15
2023-01-30T03:48:40.995Z,64.06
2023-01-30T03:51:14.225Z,63.24
2023-01-30T03:53:42.303Z,62.51
2023-01-30T03:56:11.248Z,62.18
2023-01-30T03:58:40.180Z,61.65
2023-01-30T04:01:17.743Z,61.42
2023-01-30T04:03:46.166Z,61.33
2023-01-30T04:06:16.673Z,61.28
2023-01-30T04:08:45.706Z,61.27
2023-01-30T04:11:25.234Z,60.96
2023-01-30T04:13:53.326Z,61.11
2023-01-30T04:16:24.800Z,61.28
2023-01-30T04:19:11.435Z,61.32
2023-01-30T04:21:42.000Z,61.52
2023-01-30T04:24:10.452Z,61.65
2023-01-30T04:26:38.631Z,61.60
2023-01-30T04:29:07.129Z,61.37
2023-01-30T04:31:36.374Z,61.27
2023-01-30T04:34:14.285Z,61.25
2023-01-30T04:36:43.850Z,61.01
2023-01-30T04:39:13.568Z,61.21
2023-01-30T04:41:42.469Z,61.04
2023-01-30T04:44:11.373Z,60.69
2023-01-30T04:46:39.695Z,60.83
2023-01-30T04:49:08.079Z,60.77
2023-01-30T04:51:36.555Z,60.40
2023-01-30T04:54:07.715Z,60.02
2023-01-30T04:56:36.045Z,59.78
2023-01-30T04:59:04.367Z,60.00
2023-01-30T05:01:40.080Z,59.67
2023-01-30T05:04:09.143Z,59.64
2023-01-30T05:06:38.108Z,59.37
2023-01-30T05:09:08.274Z,59.01
2023-01-30T05:11:36.818Z,59.05
2023-01-30T05:14:05.154Z,58.73
2023-01-30T05:16:33.424Z,58.90
2023-01-30T05:19:01.804Z,58.46
2023-01-30T05:21:30.214Z,58.35
2023-01-30T05:23:59.066Z,58.48
2023-01-30T05:26:28.903Z,58.70
2023-01-30T05:28:58.668Z,59.98
2023-01-30T05:31:27.260Z,60.54
2023-01-30T05:33:55.680Z,60.35
2023-01-30T05:36:24.793Z,60.47
2023-01-30T05:38:53.163Z,60.25
2023-01-30T05:41:21.526Z,60.04
2023-01-30T05:43:54.443Z,60.02
2023-01-30T05:46:22.789Z,60.09
2023-01-30T05:48:51.140Z,58.83
2023-01-30T05:51:21.459Z,58.53
2023-01-30T05:53:50.142Z,58.41
2023-01-30T05:56:19.226Z,58.09
2023-01-30T05:58:52.325Z,58.41
2023-01-30T06:01:22.833Z,58.29
2023-01-30T06:03:51.483Z,58.09
2023-01-30T06:06:20.159Z,57.87
2023-01-30T06:08:48.763Z,57.70
2023-01-30T06:11:18.498Z,57.82
2023-01-30T06:13:46.895Z,57.94
2023-01-30T06:16:17.113Z,58.12
2023-01-30T06:18:48.150Z,58.10
2023-01-30T06:21:18.079Z,58.20
2023-01-30T06:23:46.483Z,58.02
2023-01-30T06:26:14.969Z,58.09
2023-01-30T06:28:43.526Z,58.12
2023-01-30T06:31:12.019Z,58.25
2023-01-30T06:33:40.349Z,58.34
2023-01-30T06:36:10.631Z,57.96
2023-01-30T06:38:39.029Z,58.13
2023-01-30T06:41:07.950Z,58.22
2023-01-30T06:43:36.169Z,58.19
2023-01-30T06:46:04.597Z,58.00
2023-01-30T06:48:32.881Z,57.73
2023-01-30T06:51:01.330Z,57.83
2023-01-30T06:53:31.346Z,58.13
2023-01-30T06:56:00.401Z,58.25
2023-01-30T06:58:28.706Z,58.13
2023-01-30T07:00:57.113Z,58.07
2023-01-30T07:03:25.752Z,58.16
2023-01-30T07:05:55.221Z,58.04
2023-01-30T07:08:24.419Z,58.19
2023-01-30T07:10:54.205Z,58.13
2023-01-30T07:13:22.614Z,58.08
2023-01-30T07:15:50.959Z,58.20
2023-01-30T07:18:19.217Z,58.45
2023-01-30T07:20:50.912Z,59.25
2023-01-30T07:23:19.252Z,59.63
2023-01-30T07:25:47.584Z,59.58
2023-01-30T07:28:17.369Z,59.68
2023-01-30T07:30:45.676Z,59.73
2023-01-30T07:33:14.311Z,59.78
2023-01-30T07:35:42.679Z,59.49
2023-01-30T07:38:11.031Z,59.83
2023-01-30T07:40:39.381Z,59.74
2023-01-30T07:43:09.081Z,59.98
2023-01-30T07:45:40.810Z,59.80
2023-01-30T07:48:09.883Z,59.75
2023-01-30T07:50:38.224Z,59.76
2023-01-30T07:53:07.137Z,59.53
2023-01-30T07:55:35.884Z,59.78
2023-01-30T07:58:04.524Z,59.90
2023-01-30T08:00:32.898Z,59.08
2023-01-30T08:03:02.652Z,58.32
2023-01-30T08:05:30.918Z,57.88
2023-01-30T08:08:00.974Z,57.56
2023-01-30T08:10:29.379Z,57.41
2023-01-30T08:12:57.639Z,58.16
2023-01-30T08:15:26.014Z,57.29
2023-01-30T08:17:58.142Z,57.11
2023-01-30T08:20:29.491Z,56.85
2023-01-30T08:23:02.308Z,56.71
2023-01-30T08:25:31.128Z,56.96
2023-01-30T08:28:00.422Z,57.50
2023-01-30T08:30:30.769Z,57.85
2023-01-30T08:32:59.739Z,58.08
2023-01-30T08:35:29.478Z,58.38
2023-01-30T08:37:57.876Z,58.75
2023-01-30T08:40:26.147Z,59.25
2023-01-30T08:42:54.420Z,59.44
2023-01-30T08:45:22.712Z,59.46
2023-01-30T08:47:51.248Z,60.83
2023-01-30T08:50:20.065Z,60.25
2023-01-30T08:52:49.873Z,59.33
2023-01-30T08:55:18.565Z,59.16
2023-01-30T08:57:47.113Z,58.82
2023-01-30T09:00:16.829Z,59.13
2023-01-30T09:02:48.189Z,59.80
2023-01-30T09:05:16.643Z,59.62
2023-01-30T09:07:45.012Z,58.88
2023-01-30T09:10:14.989Z,58.51
2023-01-30T09:12:43.293Z,58.05
2023-01-30T09:15:12.380Z,58.06
2023-01-30T09:17:40.884Z,57.96
2023-01-30T09:20:12.267Z,57.87
2023-01-30T09:22:41.114Z,58.37
2023-01-30T09:25:10.254Z,58.41
2023-01-30T09:27:41.623Z,58.64
2023-01-30T09:30:11.589Z,58.92
2023-01-30T09:32:39.946Z,58.58
2023-01-30T09:35:08.824Z,58.47
2023-01-30T09:37:37.253Z,57.70
2023-01-30T09:40:06.629Z,57.87
2023-01-30T09:43:00.242Z,57.26
2023-01-30T09:45:42.959Z,57.13
2023-01-30T09:48:17.668Z,57.14
2023-01-30T09:51:06.674Z,57.32
2023-01-30T09:53:44.116Z,57.45
2023-01-30T09:56:12.916Z,57.06
2023-01-30T09:58:49.086Z,56.58
2023-01-30T10:01:25.365Z,56.93
2023-01-30T10:04:08.128Z,56.84
2023-01-30T10:06:43.783Z,57.98
2023-01-30T10:09:21.481Z,58.67
2023-01-30T10:12:03.446Z,58.47
2023-01-30T10:15:08.968Z,58.69
2023-01-30T10:17:52.600Z,59.77
2023-01-30T10:20:39.573Z,60.47
2023-01-30T10:23:28.959Z,60.56
2023-01-30T10:26:02.600Z,60.93
2023-01-30T10:28:34.059Z,60.90
2023-01-30T10:31:06.895Z,60.15
2023-01-30T10:33:38.119Z,60.09
2023-01-30T10:36:12.218Z,59.57
2023-01-30T10:38:45.731Z,59.54
2023-01-30T10:41:22.164Z,58.08
2023-01-30T10:43:58.000Z,57.10
2023-01-30T10:46:39.660Z,55.84
2023-01-30T10:49:16.056Z,54.26
2023-01-30T10:51:52.351Z,55.22
2023-01-30T10:54:26.441Z,56.14
2023-01-30T10:57:02.314Z,58.15
2023-01-30T10:59:43.235Z,59.35
2023-01-30T11:02:24.257Z,59.51
2023-01-30T11:04:59.048Z,59.69
2023-01-30T11:07:28.511Z,59.33
2023-01-30T11:09:59.095Z,60.08
2023-01-30T11:12:27.183Z,57.44
2023-01-30T11:14:58.681Z,56.10
2023-01-30T11:17:35.206Z,53.58
2023-01-30T11:20:11.243Z,54.80
2023-01-30T11:22:47.227Z,54.02
2023-01-30T11:25:18.413Z,52.41
2023-01-30T11:27:54.771Z,50.53
2023-01-30T11:30:28.626Z,49.18
2023-01-30T11:33:13.325Z,49.20
2023-01-30T11:35:54.716Z,50.26
2023-01-30T11:38:25.370Z,51.81
2023-01-30T11:41:04.955Z,52.51
2023-01-30T11:43:34.544Z,53.56
2023-01-30T11:46:03.161Z,54.52
2023-01-30T11:49:11.038Z,55.00
2023-01-30T11:51:25.357Z,54.50
2023-01-30T11:53:57.746Z,53.22
2023-01-30T11:56:32.433Z,51.19
2023-01-30T11:59:03.676Z,51.93
2023-01-30T12:01:34.060Z,51.09
2023-01-30T12:04:07.803Z,50.85
2023-01-30T12:06:38.038Z,51.36
2023-01-30T12:09:06.577Z,51.69
2023-01-30T12:11:45.519Z,51.12
2023-01-30T12:14:24.245Z,52.64
2023-01-30T12:16:59.186Z,53.65
2023-01-30T12:19:47.831Z,53.85
2023-01-30T12:22:24.250Z,54.20
2023-01-30T12:25:01.466Z,54.68
2023-01-30T12:30:32.575Z,51.98
2023-01-30T12:33:06.500Z,51.95
2023-01-30T12:36:01.112Z,52.07
2023-01-30T12:38:51.426Z,52.61
2023-01-30T12:41:31.591Z,51.96
2023-01-30T12:44:19.647Z,51.34
2023-01-30T12:47:03.683Z,50.70
2023-01-30T12:49:49.547Z,50.95
2023-01-30T12:52:43.490Z,51.03
2023-01-30T12:55:23.092Z,51.72
2023-01-30T12:57:55.399Z,51.56
2023-01-30T13:00:37.731Z,52.60
2023-01-30T13:03:22.480Z,52.75
2023-01-30T13:05:56.140Z,51.95
2023-01-30T13:08:42.516Z,51.41
2023-01-30T13:11:28.984Z,51.43
2023-01-30T13:14:04.334Z,51.40
2023-01-30T13:16:41.204Z,51.12
2023-01-30T13:19:19.265Z,51.99
2023-01-30T13:21:57.458Z,51.33
2023-01-30T13:24:37.539Z,50.63
2023-01-30T13:27:09.538Z,50.79
2023-01-30T13:29:40.064Z,50.72
2023-01-30T13:32:19.999Z,51.09
2023-01-30T13:34:49.534Z,50.71
2023-01-30T13:37:18.896Z,51.05
2023-01-30T13:39:52.607Z,50.95
2023-01-30T13:42:31.513Z,50.57
2023-01-30T13:45:00.904Z,50.79
2023-01-30T13:47:44.226Z,50.77
2023-01-30T13:50:33.551Z,49.71
2023-01-30T13:53:06.428Z,49.36
2023-01-30T13:55:42.958Z,48.40
2023-01-30T13:58:18.859Z,48.04
2023-01-30T14:00:55.039Z,48.14
2023-01-30T14:03:31.841Z,47.32
2023-01-30T14:06:08.191Z,48.25
2023-01-30T14:08:41.619Z,47.14
2023-01-30T14:11:39.332Z,46.54
2023-01-30T14:14:26.634Z,46.59
2023-01-30T14:16:57.033Z,47.00
2023-01-30T14:20:10.027Z,45.93
2023-01-30T14:22:51.657Z,45.29
2023-01-30T14:25:47.802Z,45.97
2023-01-30T14:28:53.578Z,46.43
2023-01-30T14:31:52.626Z,47.70
2023-01-30T14:34:49.182Z,48.44
2023-01-30T14:37:57.756Z,47.48
2023-01-30T14:40:50.830Z,47.84
2023-01-30T14:43:36.985Z,49.27
2023-01-30T14:46:09.062Z,49.94
2023-01-30T14:48:44.444Z,51.52
2023-01-30T14:51:22.075Z,51.75
2023-01-30T14:53:58.515Z,51.59
2023-01-30T14:56:43.677Z,51.59
2023-01-30T14:59:21.516Z,50.66
2023-01-30T15:02:04.171Z,49.71
2023-01-30T15:04:34.374Z,49.92
2023-01-30T15:07:10.387Z,50.05
2023-01-30T15:09:40.112Z,50.79
2023-01-30T15:12:33.642Z,51.01
2023-01-30T15:15:10.131Z,51.35
2023-01-30T15:17:58.271Z,51.65
2023-01-30T15:20:40.352Z,52.24
2023-01-30T15:23:40.074Z,52.69
2023-01-30T15:26:21.744Z,52.37
2023-01-30T15:29:00.136Z,52.36
2023-01-30T15:31:28.235Z,52.58
2023-01-30T15:33:57.920Z,52.67
2023-01-30T15:36:29.200Z,52.34
2023-01-30T15:39:02.015Z,52.24
2023-01-30T15:41:32.487Z,52.38
2023-01-30T15:44:25.798Z,52.32
2023-01-30T15:47:02.087Z,52.55
2023-01-30T15:49:55.359Z,52.78
2023-01-30T15:52:29.013Z,53.15
2023-01-30T15:55:02.110Z,52.95
2023-01-30T15:57:34.072Z,52.69
2023-01-30T16:00:03.158Z,52.40
2023-01-30T16:02:44.301Z,52.56
2023-01-30T16:05:19.183Z,52.53
2023-01-30T16:07:49.640Z,52.49
2023-01-30T16:10:19.953Z,52.43
2023-01-30T16:12:49.440Z,53.28
2023-01-30T16:15:20.165Z,53.94
2023-01-30T16:17:59.096Z,54.60
2023-01-30T16:20:28.716Z,54.82
2023-01-30T16:22:56.996Z,55.26
2023-01-30T16:25:29.839Z,55.01
2023-01-30T16:27:58.638Z,55.02
2023-01-30T16:30:29.598Z,55.52
2023-01-30T16:32:58.386Z,55.42
2023-01-30T16:35:34.238Z,54.87
2023-01-30T16:38:05.067Z,55.40
2023-01-30T16:40:44.812Z,55.27
2023-01-30T16:43:21.679Z,55.49
2023-01-30T16:46:22.670Z,54.62
2023-01-30T16:48:51.962Z,54.42
2023-01-30T16:51:24.692Z,54.73
2023-01-30T16:54:00.165Z,54.62
2023-01-30T16:56:30.338Z,54.73
2023-01-30T16:59:00.369Z,54.68
2023-01-30T17:01:46.478Z,54.57
2023-01-30T17:04:21.453Z,54.45
2023-01-30T17:06:57.794Z,54.42
2023-01-30T17:09:45.399Z,53.84
2023-01-30T17:12:44.250Z,53.36
2023-01-30T17:15:30.203Z,53.94
2023-01-30T17:17:58.364Z,54.18
2023-01-30T17:20:38.551Z,53.97
2023-01-30T17:23:10.549Z,54.26
2023-01-30T17:25:42.564Z,54.49
2023-01-30T17:28:16.853Z,54.64
2023-01-30T17:30:44.964Z,54.75
2023-01-30T17:33:13.058Z,54.81
2023-01-30T17:35:41.273Z,54.72
2023-01-30T17:38:12.512Z,54.54
2023-01-30T17:40:40.927Z,54.48
2023-01-30T17:43:09.643Z,54.49
2023-01-30T17:45:37.998Z,55.65
2023-01-30T17:48:06.798Z,55.25
2023-01-30T17:50:36.604Z,55.08
2023-01-30T17:53:04.980Z,55.15
2023-01-30T17:55:36.352Z,54.79
2023-01-30T17:58:05.276Z,54.82
2023-01-30T18:00:33.452Z,54.83
2023-01-30T18:03:01.612Z,54.98
2023-01-30T18:05:29.706Z,55.42
2023-01-30T18:07:57.750Z,55.42
2023-01-30T18:10:26.017Z,55.62
2023-01-30T18:12:55.380Z,55.44
2023-01-30T18:15:23.464Z,55.31
2023-01-30T18:17:54.914Z,55.31
2023-01-30T18:20:24.852Z,55.28
2023-01-30T18:22:53.128Z,55.30
2023-01-30T18:25:21.414Z,55.26
2023-01-30T18:27:49.691Z,55.21
2023-01-30T18:30:19.930Z,55.08
2023-01-30T18:32:53.804Z,54.76
2023-01-30T18:35:22.944Z,54.66
2023-01-30T18:37:51.214Z,54.63
2023-01-30T18:40:20.055Z,54.65
2023-01-30T18:42:48.532Z,54.73
2023-01-30T18:45:18.151Z,54.97
2023-01-30T18:47:46.255Z,55.94
2023-01-30T18:50:14.360Z,56.77
2023-01-30T18:52:42.414Z,56.89
2023-01-30T18:55:11.056Z,57.00
2023-01-30T18:57:39.082Z,56.85
2023-01-30T19:00:08.474Z,56.77
2023-01-30T19:02:37.977Z,56.49
2023-01-30T19:05:06.675Z,56.36
2023-01-30T19:07:36.424Z,55.77
2023-01-30T19:10:04.908Z,55.47
2023-01-30T19:12:50.420Z,55.13
2023-01-30T19:15:18.497Z,55.00
2023-01-30T19:17:48.149Z,55.06
2023-01-30T19:20:16.500Z,55.04
2023-01-30T19:22:44.582Z,54.84
2023-01-30T19:25:12.599Z,54.87
2023-01-30T19:27:40.772Z,54.62
2023-01-30T19:30:10.156Z,54.37
2023-01-30T19:32:38.176Z,54.20
2023-01-30T19:35:08.523Z,54.13
2023-01-30T19:37:38.422Z,54.43
2023-01-30T19:40:09.727Z,54.69
2023-01-30T19:42:40.380Z,54.78
2023-01-30T19:45:13.552Z,54.81
2023-01-30T19:47:41.539Z,54.87
2023-01-30T19:50:12.531Z,54.48
2023-01-30T19:52:40.833Z,54.67
2023-01-30T19:55:09.679Z,54.20
2023-01-30T19:57:37.702Z,54.19
2023-01-30T20:00:06.648Z,54.06
2023-01-30T20:02:34.725Z,53.82
2023-01-30T20:05:03.256Z,53.86
2023-01-30T20:07:35.635Z,53.36
2023-01-30T20:10:03.803Z,53.35
2023-01-30T20:12:34.918Z,53.20
2023-01-30T20:15:04.811Z,53.43
2023-01-30T20:17:33.351Z,53.49
2023-01-30T20:20:01.466Z,53.51
2023-01-30T20:22:29.578Z,53.85
2023-01-30T20:24:58.995Z,53.98
2023-01-30T20:27:27.154Z,54.14
2023-01-30T20:29:55.247Z,54.26
2023-01-30T20:32:23.261Z,54.49
2023-01-30T20:34:51.294Z,54.20
2023-01-30T20:37:19.387Z,54.27
2023-01-30T20:39:47.532Z,54.17
2023-01-30T20:42:18.699Z,54.14
2023-01-30T20:44:46.707Z,54.30
2023-01-30T20:47:14.755Z,54.34
2023-01-30T20:49:42.840Z,54.30
2023-01-30T20:52:10.852Z,54.30
2023-01-30T20:54:39.137Z,54.26
2023-01-30T20:57:07.602Z,54.40
2023-01-30T20:59:37.254Z,55.07
2023-01-30T21:02:05.323Z,55.93
2023-01-30T21:04:33.380Z,56.74
2023-01-30T21:07:01.774Z,57.40
2023-01-30T21:09:29.840Z,58.04
2023-01-30T21:11:57.881Z,58.59
2023-01-30T21:14:26.741Z,58.94
2023-01-30T21:16:56.253Z,58.80
2023-01-30T21:19:24.569Z,59.11
2023-01-30T21:21:55.101Z,59.15
2023-01-30T21:24:25.179Z,59.09
2023-01-30T21:26:53.928Z,59.00
2023-01-30T21:29:25.392Z,58.93
2023-01-30T21:31:54.092Z,59.67
2023-01-30T21:34:23.735Z,59.03
2023-01-30T21:37:05.783Z,58.90
2023-01-30T21:39:52.596Z,58.79
2023-01-30T21:42:38.311Z,58.94
2023-01-30T21:45:07.645Z,59.11
2023-01-30T21:47:35.817Z,58.83
2023-01-30T21:50:05.772Z,58.70
2023-01-30T21:52:34.140Z,58.64
2023-01-30T21:55:02.182Z,58.38
2023-01-30T21:57:30.287Z,58.19
2023-01-30T21:59:58.337Z,58.02
2023-01-30T22:02:26.365Z,57.92
2023-01-30T22:04:54.829Z,57.82
2023-01-30T22:07:24.284Z,57.81
2023-01-30T22:09:52.307Z,57.90
2023-01-30T22:12:20.354Z,57.80
2023-01-30T22:14:48.363Z,57.93
2023-01-30T22:17:16.388Z,58.02
2023-01-30T22:19:44.881Z,57.78
2023-01-30T22:22:12.936Z,57.84
2023-01-30T22:24:42.374Z,57.82
2023-01-30T22:27:10.414Z,58.09
2023-01-30T22:29:38.553Z,58.49
2023-01-30T22:32:06.689Z,58.78
2023-01-30T22:34:36.038Z,58.97
2023-01-30T22:37:04.178Z,59.15
2023-01-30T22:39:32.239Z,59.17
2023-01-30T22:42:01.639Z,59.28
2023-01-30T22:44:29.653Z,59.47
2023-01-30T22:46:57.984Z,59.32
2023-01-30T22:49:27.840Z,59.48
2023-01-30T22:51:59.251Z,59.41
2023-01-30T22:54:27.647Z,59.54
2023-01-30T22:56:55.965Z,59.44
2023-01-30T22:59:25.631Z,59.56
2023-01-30T23:01:54.105Z,59.44
2023-01-30T23:04:23.736Z,59.47
2023-01-30T23:06:53.122Z,59.62
2023-01-30T23:09:23.452Z,59.70
2023-01-30T23:12:07.691Z,59.56
2023-01-30T23:14:38.204Z,59.28
2023-01-30T23:17:27.428Z,59.20
2023-01-30T23:19:55.353Z,59.26
2023-01-30T23:22:24.198Z,58.84
2023-01-30T23:24:52.683Z,58.59
2023-01-30T23:27:21.323Z,58.61
2023-01-30T23:29:50.967Z,59.00
2023-01-30T23:32:20.227Z,58.79
2023-01-30T23:34:48.886Z,58.68
2023-01-30T23:37:17.359Z,58.64
2023-01-30T23:39:46.223Z,58.68
2023-01-30T23:42:14.537Z,58.62
2023-01-30T23:44:42.850Z,59.06
2023-01-30T23:47:12.533Z,59.29
2023-01-30T23:49:40.847Z,59.42
2023-01-30T23:52:10.386Z,59.62
2023-01-30T23:54:38.740Z,59.86
2023-01-30T23:57:07.031Z,59.99
2023-01-30T23:59:35.232Z,60.04
